Time;durP1;ratioP1;P1;durP2;ratioP2;P2;SDS_P1;SDS_P2;PMS_P1;PMS_P2;Temp;Humidity;BMP_temperature;BMP_pressure;BME280_temperature;BME280_humidity;BME280_pressure;Samples;Min_cycle;Max_cycle;Signal;HPM_P1;HPM_P2
2023/10/25 00:01:52;;;;;;;5.53;4.87;;;8.10;99.90;;;;;;5035771;28;20741;-66
2023/10/25 00:04:19;;;;;;;9.70;5.23;;;8.10;99.90;;;;;;5035721;28;20495;-66
2023/10/25 00:06:46;;;;;;;7.93;6.00;;;8.00;99.90;;;;;;5035736;28;20459;-66
2023/10/25 00:09:15;;;;;;;9.03;5.50;;;8.10;99.90;;;;;;5036183;28;20585;-65
2023/10/25 00:11:42;;;;;;;7.70;5.93;;;8.00;99.90;;;;;;5035054;28;20459;-66
2023/10/25 00:14:09;;;;;;;6.57;4.90;;;8.10;99.90;;;;;;5035586;28;20466;-66
2023/10/25 00:16:37;;;;;;;5.87;5.10;;;8.00;99.90;;;;;;5035678;28;20525;-66
2023/10/25 00:19:04;;;;;;;9.00;5.60;;;8.00;99.90;;;;;;5035166;28;20483;-65
2023/10/25 00:21:31;;;;;;;7.13;5.60;;;7.90;99.90;;;;;;5035889;28;20434;-65
2023/10/25 00:23:58;;;;;;;8.70;5.20;;;7.90;99.90;;;;;;5035701;28;20787;-65
2023/10/25 00:26:27;;;;;;;9.43;5.50;;;7.80;99.90;;;;;;5035654;28;20891;-65
2023/10/25 00:28:54;;;;;;;7.67;6.33;;;7.80;99.90;;;;;;5035400;28;20462;-65
2023/10/25 00:31:22;;;;;;;7.97;6.50;;;7.90;99.90;;;;;;5035633;28;20455;-66
2023/10/25 00:33:49;;;;;;;7.30;5.87;;;7.80;99.90;;;;;;5035004;28;20432;-65
2023/10/25 00:36:16;;;;;;;7.03;5.33;;;7.80;99.90;;;;;;5035285;28;20463;-65
2023/10/25 00:38:43;;;;;;;8.07;5.90;;;7.80;99.90;;;;;;5035354;28;20463;-65
2023/10/25 00:41:10;;;;;;;7.67;5.70;;;7.80;99.90;;;;;;5035368;28;20470;-65
2023/10/25 00:43:39;;;;;;;8.27;5.33;;;7.90;99.90;;;;;;5035280;28;20466;-65
2023/10/25 00:46:11;;;;;;;8.13;5.90;;;7.90;99.90;;;;;;5034908;28;20440;-65
2023/10/25 00:48:40;;;;;;;7.07;4.93;;;8.00;99.90;;;;;;5035173;28;20558;-66
2023/10/25 00:51:09;;;;;;;6.80;5.60;;;8.10;99.90;;;;;;5034800;28;20470;-65
2023/10/25 00:53:39;;;;;;;9.00;5.87;;;8.20;99.90;;;;;;5034691;28;20508;-65
2023/10/25 00:56:08;;;;;;;6.70;5.90;;;8.20;99.90;;;;;;5035140;28;20846;-66
2023/10/25 00:58:36;;;;;;;7.73;4.70;;;8.30;99.90;;;;;;5034867;28;20482;-65
2023/10/25 01:01:06;;;;;;;10.53;6.00;;;8.30;99.90;;;;;;5034363;28;20463;-65
2023/10/25 01:03:33;;;;;;;9.43;5.50;;;8.30;99.90;;;;;;5034977;28;20462;-65
2023/10/25 01:06:02;;;;;;;8.30;5.10;;;8.20;99.90;;;;;;5034593;28;20466;-65
2023/10/25 01:08:30;;;;;;;7.93;5.23;;;8.30;99.90;;;;;;5034545;28;20491;-65
2023/10/25 01:10:58;;;;;;;10.37;6.10;;;8.20;99.90;;;;;;5034879;28;20549;-65
2023/10/25 01:13:25;;;;;;;7.50;5.00;;;8.10;99.90;;;;;;5034918;28;20922;-65
2023/10/25 01:15:53;;;;;;;5.50;5.00;;;8.20;99.90;;;;;;5034675;28;20559;-65
2023/10/25 01:18:21;;;;;;;6.00;4.93;;;8.10;99.90;;;;;;5034795;28;20546;-65
2023/10/25 01:20:48;;;;;;;5.80;5.20;;;8.10;99.90;;;;;;5034757;28;20463;-65
2023/10/25 01:23:17;;;;;;;6.50;5.80;;;7.90;99.90;;;;;;5034929;28;20494;-65
2023/10/25 01:25:45;;;;;;;7.53;5.43;;;7.90;99.90;;;;;;5034441;28;20744;-65
2023/10/25 01:28:12;;;;;;;7.00;5.40;;;7.80;99.90;;;;;;5034416;28;20461;-65
2023/10/25 01:30:40;;;;;;;6.67;5.50;;;8.00;99.90;;;;;;5034978;28;20463;-65
2023/10/25 01:33:08;;;;;;;7.43;5.87;;;8.00;99.90;;;;;;5034695;28;20459;-65
2023/10/25 01:35:35;;;;;;;6.93;5.90;;;8.00;99.90;;;;;;5034962;28;20463;-65
2023/10/25 01:38:03;;;;;;;6.57;5.10;;;7.90;99.90;;;;;;5034701;28;20880;-65
2023/10/25 01:40:32;;;;;;;6.70;5.10;;;7.90;99.90;;;;;;5034885;28;20902;-65
2023/10/25 01:42:59;;;;;;;11.37;5.77;;;7.90;99.90;;;;;;5034556;28;20465;-65
2023/10/25 01:45:27;;;;;;;6.40;4.97;;;7.90;99.90;;;;;;5034614;28;20463;-65
2023/10/25 01:47:54;;;;;;;7.40;4.93;;;7.80;99.90;;;;;;5034295;28;20899;-65
2023/10/25 01:50:22;;;;;;;5.73;4.30;;;7.70;99.90;;;;;;5034446;28;20748;-65
2023/10/25 01:52:49;;;;;;;10.50;4.70;;;7.60;99.90;;;;;;5034302;28;20467;-64
2023/10/25 01:55:16;;;;;;;11.20;5.17;;;7.60;99.90;;;;;;5033399;28;20459;-65
2023/10/25 01:57:45;;;;;;;9.53;5.17;;;7.50;99.90;;;;;;5033868;28;20562;-65
2023/10/25 02:00:13;;;;;;;10.20;4.80;;;7.50;99.90;;;;;;5034007;28;20470;-64
2023/10/25 02:02:41;;;;;;;12.00;5.07;;;7.50;99.90;;;;;;5035005;28;20462;-64
2023/10/25 02:05:09;;;;;;;6.20;4.60;;;7.40;99.90;;;;;;5037837;28;20517;-64
2023/10/25 02:07:36;;;;;;;8.53;5.77;;;7.40;99.90;;;;;;5037971;28;20573;-64
2023/10/25 02:10:03;;;;;;;7.10;6.10;;;7.50;99.90;;;;;;5037754;28;20553;-64
2023/10/25 02:12:30;;;;;;;11.80;5.63;;;7.50;99.90;;;;;;5038323;28;20460;-64
2023/10/25 02:14:59;;;;;;;6.60;5.30;;;7.50;99.90;;;;;;5038206;28;20539;-64
2023/10/25 02:17:26;;;;;;;8.00;5.83;;;7.50;99.90;;;;;;5037815;28;20467;-65
2023/10/25 02:19:53;;;;;;;6.57;5.60;;;7.50;99.90;;;;;;5037231;28;20466;-64
2023/10/25 02:22:21;;;;;;;11.00;4.70;;;7.60;99.90;;;;;;5037218;28;20438;-64
2023/10/25 02:24:49;;;;;;;13.90;5.00;;;7.60;99.90;;;;;;5037870;28;20470;-64
2023/10/25 02:27:16;;;;;;;7.17;4.70;;;7.80;99.90;;;;;;5037613;28;20502;-64
2023/10/25 02:29:44;;;;;;;6.43;4.87;;;7.80;99.90;;;;;;5037583;28;20540;-64
2023/10/25 02:32:12;;;;;;;7.17;4.60;;;7.80;99.90;;;;;;5037051;28;20557;-64
2023/10/25 02:34:39;;;;;;;7.03;4.27;;;7.80;99.90;;;;;;5037754;28;20799;-64
2023/10/25 02:37:07;;;;;;;5.80;4.50;;;7.80;99.90;;;;;;5037563;28;20566;-64
2023/10/25 02:39:34;;;;;;;5.30;4.80;;;7.70;99.90;;;;;;5037751;28;20459;-64
2023/10/25 02:42:01;;;;;;;10.20;4.70;;;7.70;99.90;;;;;;5036924;28;20478;-64
2023/10/25 02:44:28;;;;;;;13.53;4.50;;;7.70;99.90;;;;;;5037110;28;20490;-64
2023/10/25 02:46:57;;;;;;;5.67;4.10;;;7.70;99.90;;;;;;5037721;28;20466;-64
2023/10/25 02:49:25;;;;;;;6.87;5.33;;;7.70;99.90;;;;;;5037681;28;20455;-64
2023/10/25 02:51:53;;;;;;;6.30;4.60;;;7.70;99.90;;;;;;5037224;28;20515;-64
2023/10/25 02:54:20;;;;;;;8.63;6.07;;;7.80;99.90;;;;;;5037200;28;20470;-64
2023/10/25 02:56:47;;;;;;;9.83;5.93;;;7.80;99.90;;;;;;5037559;28;20727;-64
2023/10/25 02:59:14;;;;;;;7.73;5.20;;;7.80;99.90;;;;;;5037306;28;20463;-64
2023/10/25 03:01:41;;;;;;;8.60;6.00;;;7.80;99.90;;;;;;5036484;28;20458;-64
2023/10/25 03:04:08;;;;;;;6.87;6.17;;;7.80;99.90;;;;;;5037103;28;20497;-64
2023/10/25 03:06:37;;;;;;;11.47;5.80;;;7.70;99.90;;;;;;5037730;28;20534;-64
2023/10/25 03:09:04;;;;;;;7.10;5.70;;;7.70;99.90;;;;;;5036961;28;20484;-64
2023/10/25 03:11:31;;;;;;;6.63;6.00;;;7.70;99.90;;;;;;5038044;28;20847;-64
2023/10/25 03:13:58;;;;;;;7.47;5.13;;;7.80;99.90;;;;;;5037129;28;20452;-64
2023/10/25 03:16:26;;;;;;;6.90;5.50;;;7.70;99.90;;;;;;5037010;28;20546;-64
2023/10/25 03:18:53;;;;;;;7.97;5.47;;;7.60;99.90;;;;;;5037333;28;20463;-64
2023/10/25 03:21:20;;;;;;;8.93;5.50;;;7.60;99.90;;;;;;5037159;28;20456;-64
2023/10/25 03:23:50;;;;;;;5.87;5.27;;;7.60;99.90;;;;;;5036260;28;20490;-64
2023/10/25 03:26:17;;;;;;;9.03;5.53;;;7.60;99.90;;;;;;5037010;28;20529;-64
2023/10/25 03:28:44;;;;;;;7.70;5.30;;;7.50;99.90;;;;;;5036524;28;20551;-64
2023/10/25 03:31:11;;;;;;;7.20;5.60;;;7.50;99.90;;;;;;5035584;28;20824;-64
2023/10/25 03:33:38;;;;;;;9.30;6.17;;;7.50;99.90;;;;;;5036906;28;20459;-63
2023/10/25 03:36:06;;;;;;;6.33;5.50;;;7.50;99.90;;;;;;5036863;28;20434;-64
2023/10/25 03:38:35;;;;;;;7.37;5.60;;;7.50;99.90;;;;;;5036675;28;20554;-64
2023/10/25 03:41:05;;;;;;;9.17;5.87;;;7.50;99.90;;;;;;5036849;28;20468;-64
2023/10/25 03:43:32;;;;;;;9.93;6.50;;;7.60;99.90;;;;;;5037662;28;20928;-64
2023/10/25 03:46:03;;;;;;;7.20;6.50;;;7.60;99.90;;;;;;5040246;28;20911;-64
2023/10/25 03:48:30;;;;;;;8.27;6.40;;;7.60;99.90;;;;;;5039755;28;20721;-64
2023/10/25 03:50:58;;;;;;;7.23;6.00;;;7.60;99.90;;;;;;5039804;28;20455;-63
2023/10/25 03:53:25;;;;;;;11.03;7.50;;;7.70;99.90;;;;;;5040399;28;20753;-64
2023/10/25 03:55:56;;;;;;;9.23;7.60;;;7.80;99.90;;;;;;5040715;28;20455;-64
2023/10/25 03:58:26;;;;;;;7.87;7.07;;;7.80;99.90;;;;;;5040305;28;20924;-64
2023/10/25 04:01:00;;;;;;;10.50;7.70;;;7.70;99.90;;;;;;5040292;28;20558;-64
2023/10/25 04:03:27;;;;;;;9.40;7.40;;;7.80;99.90;;;;;;5041075;28;20848;-64
2023/10/25 04:05:54;;;;;;;10.10;7.10;;;7.70;99.90;;;;;;5037359;28;20494;-65
2023/10/25 04:08:22;;;;;;;8.70;7.50;;;7.70;99.90;;;;;;5036429;28;20483;-64
2023/10/25 04:10:51;;;;;;;10.53;7.20;;;7.80;99.90;;;;;;5036575;28;20461;-64
2023/10/25 04:13:18;;;;;;;9.10;7.60;;;7.80;99.90;;;;;;5037673;28;20497;-64
2023/10/25 04:15:54;;;;;;;9.40;7.87;;;7.70;99.90;;;;;;5036323;28;20462;-64
2023/10/25 04:18:22;;;;;;;8.83;7.50;;;7.70;99.90;;;;;;5037087;28;20490;-64
2023/10/25 04:20:49;;;;;;;10.33;7.27;;;7.70;99.90;;;;;;5038782;28;20474;-64
2023/10/25 04:23:16;;;;;;;10.40;7.87;;;7.80;99.90;;;;;;5038858;28;20455;-64
2023/10/25 04:25:44;;;;;;;9.53;7.43;;;7.70;99.90;;;;;;5037742;28;20491;-64
2023/10/25 04:28:11;;;;;;;10.43;7.60;;;7.70;99.90;;;;;;5039444;28;20466;-63
2023/10/25 04:30:38;;;;;;;9.60;7.90;;;7.80;99.90;;;;;;5040568;28;20486;-64
2023/10/25 04:33:08;;;;;;;12.17;8.27;;;7.70;99.90;;;;;;5041840;28;20535;-64
2023/10/25 04:35:35;;;;;;;10.07;8.50;;;7.70;99.90;;;;;;5039925;28;20463;-64
2023/10/25 04:38:02;;;;;;;9.80;8.43;;;7.80;99.90;;;;;;5039961;28;20554;-64
2023/10/25 04:40:31;;;;;;;9.17;7.50;;;7.80;99.90;;;;;;5039135;28;20460;-63
2023/10/25 04:42:59;;;;;;;13.87;9.17;;;7.80;99.90;;;;;;5040728;28;20756;-63
2023/10/25 04:45:26;;;;;;;12.27;7.47;;;7.70;99.90;;;;;;5045393;28;20501;-63
2023/10/25 04:47:53;;;;;;;8.67;7.27;;;7.80;99.90;;;;;;5043089;28;20902;-63
2023/10/25 04:50:22;;;;;;;10.43;7.90;;;7.80;99.90;;;;;;5040548;28;20534;-63
2023/10/25 04:52:49;;;;;;;10.30;8.60;;;7.70;99.90;;;;;;5041113;28;20491;-64
2023/10/25 04:55:17;;;;;;;10.20;7.87;;;7.70;99.90;;;;;;5043834;28;20483;-63
2023/10/25 04:57:44;;;;;;;10.90;9.27;;;7.70;99.90;;;;;;5042791;28;20493;-64
2023/10/25 05:00:12;;;;;;;13.03;8.77;;;7.70;99.90;;;;;;5042046;28;20842;-64
2023/10/25 05:02:40;;;;;;;10.70;9.43;;;7.80;99.90;;;;;;5038923;28;20467;-63
2023/10/25 05:05:08;;;;;;;15.47;10.40;;;7.80;99.90;;;;;;5039778;28;20587;-64
2023/10/25 05:07:38;;;;;;;10.67;9.47;;;7.90;99.90;;;;;;5042201;28;20559;-64
2023/10/25 05:10:06;;;;;;;11.37;9.73;;;7.90;99.90;;;;;;5040478;28;20470;-64
2023/10/25 05:12:38;;;;;;;11.10;9.27;;;7.90;99.90;;;;;;5040721;28;20469;-63
2023/10/25 05:15:08;;;;;;;11.43;9.37;;;8.00;99.90;;;;;;5040460;28;20479;-63
2023/10/25 05:17:36;;;;;;;10.23;9.00;;;8.00;99.90;;;;;;5041806;28;20976;-64
2023/10/25 05:20:06;;;;;;;11.60;9.90;;;8.00;99.90;;;;;;5039463;28;20464;-63
2023/10/25 05:22:37;;;;;;;12.63;10.23;;;8.00;99.90;;;;;;5038866;28;20438;-64
2023/10/25 05:25:06;;;;;;;15.63;9.60;;;8.10;99.90;;;;;;5040104;28;20479;-64
2023/10/25 05:27:35;;;;;;;20.57;17.77;;;8.10;99.90;;;;;;5040610;28;20459;-63
2023/10/25 05:30:04;;;;;;;19.60;12.50;;;8.10;99.90;;;;;;5041423;28;20455;-63
2023/10/25 05:32:32;;;;;;;19.53;14.60;;;8.10;99.90;;;;;;5040483;28;20474;-63
2023/10/25 05:35:02;;;;;;;11.50;10.33;;;8.20;99.90;;;;;;5040330;28;20430;-63
2023/10/25 05:37:30;;;;;;;12.80;10.37;;;8.20;99.90;;;;;;5040785;28;20521;-64
2023/10/25 05:39:59;;;;;;;12.13;10.43;;;8.30;99.90;;;;;;5039498;28;20532;-63
2023/10/25 05:42:27;;;;;;;9.33;8.40;;;8.30;99.90;;;;;;5034341;28;20463;-65
2023/10/25 05:44:55;;;;;;;10.40;9.30;;;8.30;99.90;;;;;;5031688;28;20578;-65
2023/10/25 05:47:23;;;;;;;11.87;8.60;;;8.40;99.90;;;;;;5034427;28;20886;-65
2023/10/25 05:49:51;;;;;;;9.80;8.80;;;8.40;99.90;;;;;;5034127;28;20459;-65
2023/10/25 05:52:19;;;;;;;11.77;8.40;;;8.40;99.90;;;;;;5034165;28;20533;-65
2023/10/25 05:54:46;;;;;;;11.40;8.73;;;8.40;99.90;;;;;;5033981;28;20795;-65
2023/10/25 05:57:16;;;;;;;13.60;8.73;;;8.50;99.90;;;;;;5034633;28;20537;-65
2023/10/25 05:59:44;;;;;;;10.70;8.03;;;8.50;99.90;;;;;;5033680;28;20516;-64
2023/10/25 06:02:14;;;;;;;8.60;7.73;;;8.60;99.90;;;;;;5034638;28;20475;-64
2023/10/25 06:04:42;;;;;;;9.67;7.97;;;8.60;99.90;;;;;;5034382;28;20558;-65
2023/10/25 06:07:11;;;;;;;10.50;7.80;;;8.60;99.90;;;;;;5034258;28;20540;-65
2023/10/25 06:09:39;;;;;;;9.33;6.90;;;8.70;99.90;;;;;;5034132;28;20432;-65
2023/10/25 06:12:08;;;;;;;9.03;7.33;;;8.70;99.90;;;;;;5033490;28;20501;-65
2023/10/25 06:14:37;;;;;;;10.23;7.07;;;8.70;99.90;;;;;;5034145;28;20738;-65
2023/10/25 06:17:04;;;;;;;7.40;5.70;;;8.80;99.90;;;;;;5033805;28;20494;-66
2023/10/25 06:19:31;;;;;;;12.87;6.90;;;8.80;99.90;;;;;;5033955;28;20430;-66
2023/10/25 06:21:58;;;;;;;12.67;7.07;;;8.80;99.90;;;;;;5033461;28;20478;-65
2023/10/25 06:24:26;;;;;;;17.33;13.70;;;8.90;99.90;;;;;;5032585;28;20467;-65
2023/10/25 06:26:53;;;;;;;17.13;10.77;;;8.90;99.90;;;;;;5033081;28;20494;-65
2023/10/25 06:29:21;;;;;;;10.70;8.97;;;9.00;99.90;;;;;;5032624;28;20463;-65
2023/10/25 06:31:51;;;;;;;12.10;9.00;;;8.90;99.90;;;;;;5032922;28;20778;-66
2023/10/25 06:34:19;;;;;;;12.60;9.90;;;8.90;99.90;;;;;;5032994;28;20715;-64
2023/10/25 06:36:47;;;;;;;11.37;8.77;;;8.90;99.90;;;;;;5033148;28;20477;-65
2023/10/25 06:39:15;;;;;;;16.83;9.73;;;8.90;99.90;;;;;;5033190;28;20459;-65
2023/10/25 06:41:43;;;;;;;9.73;8.00;;;9.00;99.90;;;;;;5033047;28;20465;-70
2023/10/25 06:44:11;;;;;;;14.57;11.03;;;9.00;99.90;;;;;;5032193;28;20437;-65
2023/10/25 06:46:39;;;;;;;22.03;12.13;;;9.10;99.90;;;;;;5032287;28;20552;-65
2023/10/25 06:49:09;;;;;;;14.17;10.77;;;9.10;99.90;;;;;;5033594;28;20463;-63
2023/10/25 06:51:36;;;;;;;18.60;10.67;;;9.10;99.90;;;;;;5036493;28;20539;-65
2023/10/25 06:54:04;;;;;;;26.40;17.90;;;9.20;99.90;;;;;;5035710;28;20817;-65
2023/10/25 06:56:33;;;;;;;26.27;16.20;;;9.20;99.90;;;;;;5036316;28;20520;-65
2023/10/25 06:59:00;;;;;;;18.10;12.10;;;9.30;99.90;;;;;;5036529;28;20437;-65
2023/10/25 07:01:32;;;;;;;45.50;24.50;;;9.30;99.90;;;;;;5036845;28;20444;-65
2023/10/25 07:04:00;;;;;;;18.50;10.20;;;9.30;99.90;;;;;;5036794;28;20459;-64
2023/10/25 07:06:30;;;;;;;24.23;12.40;;;9.40;99.90;;;;;;5036554;28;20494;-65
2023/10/25 07:08:57;;;;;;;30.97;15.30;;;9.40;99.90;;;;;;5037189;28;20573;-64
2023/10/25 07:11:25;;;;;;;18.57;7.90;;;9.50;99.90;;;;;;5036845;28;20459;-65
2023/10/25 07:13:52;;;;;;;20.17;10.20;;;9.50;99.90;;;;;;5035817;28;20565;-64
2023/10/25 07:16:19;;;;;;;36.83;15.03;;;9.60;99.90;;;;;;5036247;28;20462;-64
2023/10/25 07:18:47;;;;;;;65.70;23.63;;;9.70;99.90;;;;;;5036806;28;20478;-64
2023/10/25 07:21:15;;;;;;;22.00;9.23;;;9.70;99.90;;;;;;5037123;28;20463;-65
2023/10/25 07:23:43;;;;;;;8.93;6.00;;;9.80;99.90;;;;;;5036195;28;20455;-65
2023/10/25 07:26:11;;;;;;;11.00;7.07;;;9.90;99.90;;;;;;5036849;28;20765;-68
2023/10/25 07:28:38;;;;;;;9.30;5.73;;;9.90;99.90;;;;;;5036623;28;20463;-63
2023/10/25 07:31:05;;;;;;;7.80;3.97;;;10.10;99.90;;;;;;5036813;28;20466;-64
2023/10/25 07:33:33;;;;;;;8.43;3.67;;;10.10;99.90;;;;;;5037087;28;20466;-65
2023/10/25 07:36:00;;;;;;;5.70;4.00;;;10.10;99.90;;;;;;5036180;28;20550;-64
2023/10/25 07:38:28;;;;;;;7.60;4.23;;;10.10;99.90;;;;;;5036550;28;20504;-64
2023/10/25 07:40:56;;;;;;;5.13;3.50;;;10.10;99.90;;;;;;5036073;28;20510;-64
2023/10/25 07:43:24;;;;;;;8.37;4.03;;;10.10;99.90;;;;;;5036824;28;20545;-64
2023/10/25 07:45:51;;;;;;;5.10;3.03;;;10.10;99.90;;;;;;5035762;28;20832;-64
2023/10/25 07:48:20;;;;;;;7.30;3.33;;;10.10;99.90;;;;;;5035795;28;20465;-64
2023/10/25 07:50:47;;;;;;;3.97;3.20;;;10.00;99.90;;;;;;5036212;28;20486;-64
2023/10/25 07:53:16;;;;;;;8.20;3.80;;;10.00;99.90;;;;;;5036204;28;20459;-63
2023/10/25 07:55:44;;;;;;;6.70;2.87;;;10.10;99.90;;;;;;5035841;28;20458;-64
2023/10/25 07:58:14;;;;;;;5.37;3.23;;;10.00;99.90;;;;;;5035827;28;20509;-63
2023/10/25 08:00:41;;;;;;;4.03;3.20;;;10.00;99.90;;;;;;5034345;28;20553;-63
2023/10/25 08:03:09;;;;;;;8.87;2.83;;;10.00;99.90;;;;;;5036347;28;20512;-63
2023/10/25 08:05:36;;;;;;;5.60;2.87;;;10.10;99.90;;;;;;5036309;28;20518;-63
2023/10/25 08:08:04;;;;;;;5.87;3.07;;;10.00;99.90;;;;;;5035498;28;20487;-64
2023/10/25 08:10:31;;;;;;;4.67;2.67;;;10.00;99.90;;;;;;5035911;28;20467;-64
2023/10/25 08:12:58;;;;;;;7.63;3.60;;;10.10;99.90;;;;;;5043277;27;20944;-64
2023/10/25 08:15:27;;;;;;;4.73;2.70;;;10.10;99.90;;;;;;5034352;28;20451;-63
2023/10/25 08:17:55;;;;;;;7.50;3.30;;;10.10;99.90;;;;;;5034517;28;20488;-63
2023/10/25 08:20:22;;;;;;;6.70;3.23;;;10.10;99.90;;;;;;5034114;28;20463;-63
2023/10/25 08:22:49;;;;;;;8.10;2.83;;;10.20;1.00;;;;;;5034414;28;20815;-63
2023/10/25 08:25:16;;;;;;;4.50;2.80;;;10.20;1.00;;;;;;5035000;28;20491;-63
2023/10/25 08:27:44;;;;;;;7.07;4.10;;;10.30;99.90;;;;;;5034572;28;20943;-63
2023/10/25 08:30:11;;;;;;;7.80;2.70;;;10.30;99.90;;;;;;5034839;28;20517;-63
2023/10/25 08:32:40;;;;;;;5.43;2.70;;;10.30;20.30;;;;;;5035206;28;20459;-63
2023/10/25 08:35:08;;;;;;;3.70;2.80;;;10.40;90.10;;;;;;5034485;28;20455;-63
2023/10/25 08:37:35;;;;;;;4.80;2.87;;;10.40;99.90;;;;;;5033682;28;20885;-63
2023/10/25 08:40:03;;;;;;;5.43;2.70;;;10.40;57.40;;;;;;5033083;28;20430;-63
2023/10/25 08:42:30;;;;;;;7.03;2.70;;;10.50;99.90;;;;;;5033341;28;20461;-63
2023/10/25 08:44:58;;;;;;;8.00;3.60;;;10.60;91.30;;;;;;5033688;28;20460;-63
2023/10/25 08:47:25;;;;;;;3.60;2.70;;;10.60;23.60;;;;;;5032958;28;20491;-63
2023/10/25 08:49:54;;;;;;;4.03;2.50;;;10.60;1.00;;;;;;5033945;28;20445;-64
2023/10/25 08:52:25;;;;;;;8.67;3.00;;;10.60;3.20;;;;;;5032776;28;20566;-64
2023/10/25 08:54:53;;;;;;;6.67;3.33;;;10.60;36.60;;;;;;5035737;28;20775;-63
2023/10/25 08:57:20;;;;;;;3.53;2.63;;;10.70;91.90;;;;;;5034761;28;20459;-64
2023/10/25 08:59:51;;;;;;;4.17;2.77;;;10.70;99.90;;;;;;5034345;28;20466;-63
2023/10/25 09:02:18;;;;;;;5.20;2.80;;;10.80;73.80;;;;;;5035073;28;20463;-63
2023/10/25 09:05:06;;;;;;;7.70;4.17;;;10.80;24.60;;;;;;5034864;28;20463;-63
2023/10/25 09:07:36;;;;;;;8.50;4.83;;;10.90;39.10;;;;;;5034840;28;20809;-63
2023/10/25 09:10:04;;;;;;;7.90;4.23;;;11.00;44.00;;;;;;5034922;28;20463;-64
2023/10/25 09:12:32;;;;;;;12.77;8.20;;;11.00;1.00;;;;;;5034377;28;20549;-64
2023/10/25 09:15:00;;;;;;;9.10;3.03;;;11.00;1.00;;;;;;5034864;28;20796;-63
2023/10/25 09:17:27;;;;;;;5.83;3.10;;;11.00;1.00;;;;;;5034714;28;20823;-64
2023/10/25 09:19:54;;;;;;;4.13;2.57;;;11.00;1.00;;;;;;5033782;28;20554;-64
2023/10/25 09:22:25;;;;;;;5.93;3.30;;;11.00;1.00;;;;;;5034744;28;20549;-64
2023/10/25 09:24:54;;;;;;;7.90;4.90;;;11.10;1.00;;;;;;5034410;28;20936;-64
2023/10/25 09:27:22;;;;;;;6.80;3.47;;;11.00;1.00;;;;;;5033729;28;20752;-64
2023/10/25 09:29:50;;;;;;;13.60;3.60;;;11.00;1.00;;;;;;5033511;28;20542;-64
2023/10/25 09:32:19;;;;;;;13.53;8.90;;;11.00;1.00;;;;;;5034265;28;20541;-64
2023/10/25 09:34:47;;;;;;;13.97;7.47;;;11.00;49.50;;;;;;5033782;28;20459;-63
2023/10/25 09:37:15;;;;;;;7.73;4.47;;;11.00;23.00;;;;;;5033708;28;20458;-64
2023/10/25 09:39:46;;;;;;;9.10;5.47;;;11.00;45.10;;;;;;5033183;28;20466;-64
2023/10/25 09:42:14;;;;;;;5.00;3.23;;;10.90;26.80;;;;;;5034052;28;20558;-64
2023/10/25 09:44:47;;;;;;;3.90;2.83;;;11.00;98.80;;;;;;5034327;28;20769;-63
2023/10/25 09:47:18;;;;;;;8.93;3.40;;;10.90;1.00;;;;;;5034908;28;20491;-64
2023/10/25 09:49:49;;;;;;;6.83;4.27;;;11.00;1.00;;;;;;5033994;28;20488;-64
2023/10/25 09:52:20;;;;;;;5.63;3.00;;;11.00;1.00;;;;;;5034067;28;20487;-64
2023/10/25 09:54:53;;;;;;;5.10;3.60;;;11.00;39.60;;;;;;5034486;28;20515;-64
2023/10/25 09:57:22;;;;;;;5.63;3.10;;;11.00;43.40;;;;;;5033877;28;20550;-64
2023/10/25 09:59:53;;;;;;;4.80;3.33;;;11.00;86.90;;;;;;5032043;28;20545;-63
2023/10/25 10:02:27;;;;;;;8.00;3.47;;;11.00;6.30;;;;;;5032081;28;20539;-64
2023/10/25 10:04:59;;;;;;;5.73;3.10;;;11.10;22.70;;;;;;5032286;28;20974;-64
2023/10/25 10:07:37;;;;;;;3.03;2.13;;;11.10;29.90;;;;;;5032568;28;20495;-63
2023/10/25 10:10:19;;;;;;;5.53;2.70;;;11.10;42.90;;;;;;5032390;28;20566;-63
2023/10/25 10:12:46;;;;;;;4.60;2.87;;;11.10;18.20;;;;;;5033410;28;20467;-64
2023/10/25 10:15:16;;;;;;;4.67;2.50;;;11.20;85.60;;;;;;5033240;28;20879;-64
2023/10/25 10:17:44;;;;;;;5.13;3.17;;;11.20;99.90;;;;;;5033393;28;20455;-63
2023/10/25 10:20:24;;;;;;;7.53;3.10;;;11.20;99.90;;;;;;5033936;28;20465;-64
2023/10/25 10:23:05;;;;;;;4.43;3.00;;;11.30;99.90;;;;;;5034316;28;20501;-63
2023/10/25 10:25:52;;;;;;;3.97;2.77;;;11.30;78.30;;;;;;5037406;28;20492;-63
2023/10/25 10:28:39;;;;;;;5.03;3.10;;;11.30;65.70;;;;;;5037443;28;20459;-63
2023/10/25 10:31:07;;;;;;;4.73;2.70;;;11.40;63.40;;;;;;5037749;28;20505;-63
2023/10/25 10:33:42;;;;;;;4.40;3.00;;;11.30;9.30;;;;;;5037635;28;20459;-64
2023/10/25 10:36:10;;;;;;;4.87;3.00;;;11.30;98.90;;;;;;5036884;28;20447;-63
2023/10/25 10:39:12;;;;;;;5.00;2.90;;;11.40;99.90;;;;;;5036610;28;20470;-63
2023/10/25 10:41:41;;;;;;;6.50;2.60;;;11.50;98.10;;;;;;5040421;28;21222;-63
2023/10/25 10:44:09;;;;;;;4.77;3.03;;;11.40;97.90;;;;;;5052736;28;20557;-63
2023/10/25 10:46:45;;;;;;;6.30;2.40;;;11.50;99.90;;;;;;5024980;28;20523;-63
2023/10/25 10:49:15;;;;;;;3.90;2.77;;;11.50;99.90;;;;;;5034633;28;20521;-64
2023/10/25 10:51:43;;;;;;;4.93;3.33;;;11.50;99.90;;;;;;5021952;28;20589;-63
2023/10/25 10:54:10;;;;;;;6.07;3.03;;;11.60;99.90;;;;;;5016129;28;20589;-64
2023/10/25 10:56:38;;;;;;;4.37;2.80;;;11.60;99.90;;;;;;5025092;28;20459;-66
2023/10/25 10:59:07;;;;;;;8.53;3.00;;;11.50;99.90;;;;;;5024683;28;20474;-67
2023/10/25 11:01:35;;;;;;;4.40;2.47;;;11.50;99.90;;;;;;5016249;28;20482;-67
2023/10/25 11:04:02;;;;;;;5.30;3.47;;;11.40;1.00;;;;;;5031951;28;20904;-68
2023/10/25 11:06:29;;;;;;;5.07;2.93;;;11.50;1.00;;;;;;5035284;28;20522;-67
2023/10/25 11:08:58;;;;;;;4.90;3.37;;;11.40;1.00;;;;;;5033272;28;20814;-65
2023/10/25 11:11:26;;;;;;;4.47;3.20;;;11.40;1.00;;;;;;5024066;28;20471;-66
2023/10/25 11:13:54;;;;;;;6.00;3.50;;;11.40;1.00;;;;;;5019336;28;20900;-67
2023/10/25 11:16:24;;;;;;;3.60;2.73;;;11.40;1.00;;;;;;5036277;28;20460;-69
2023/10/25 11:18:52;;;;;;;6.57;3.77;;;11.30;1.60;;;;;;5036745;28;20495;-67
2023/10/25 11:21:19;;;;;;;8.87;3.80;;;11.30;1.00;;;;;;5036942;28;20923;-67
2023/10/25 11:23:47;;;;;;;4.60;3.33;;;11.30;42.60;;;;;;5027995;28;20505;-66
2023/10/25 11:26:14;;;;;;;5.57;3.40;;;11.30;68.50;;;;;;5016775;28;20442;-68
2023/10/25 11:28:42;;;;;;;4.33;3.80;;;11.30;95.90;;;;;;5017462;28;20468;-65
2023/10/25 11:31:09;;;;;;;4.57;3.60;;;11.20;99.90;;;;;;5016671;28;20517;-66
2023/10/25 11:33:47;;;;;;;4.30;3.43;;;11.10;99.90;;;;;;5025938;28;20481;-69
2023/10/25 11:36:16;;;;;;;4.77;3.70;;;11.10;99.90;;;;;;5035971;28;20553;-66
2023/10/25 11:38:44;;;;;;;4.23;3.83;;;11.00;99.90;;;;;;5036313;28;20459;-65
2023/10/25 11:41:12;;;;;;;6.00;3.60;;;11.00;99.90;;;;;;5036675;28;20460;-62
2023/10/25 11:43:40;;;;;;;5.10;3.27;;;11.00;99.90;;;;;;5036541;28;20512;-64
2023/10/25 11:46:07;;;;;;;5.17;4.10;;;11.00;99.90;;;;;;5036028;28;20482;-66
2023/10/25 11:48:35;;;;;;;7.70;3.73;;;11.00;1.00;;;;;;5036408;28;20518;-67
2023/10/25 11:51:05;;;;;;;5.63;4.70;;;10.90;1.00;;;;;;5035720;28;20515;-67
2023/10/25 11:53:32;;;;;;;4.80;3.60;;;11.00;1.00;;;;;;5036262;28;20524;-66
2023/10/25 11:56:00;;;;;;;4.40;3.70;;;10.90;1.00;;;;;;5035995;28;20589;-69
2023/10/25 11:58:30;;;;;;;8.90;4.03;;;10.80;1.00;;;;;;5036433;28;20484;-68
2023/10/25 12:00:58;;;;;;;4.57;3.70;;;10.90;1.00;;;;;;5035859;28;20465;-64
2023/10/25 12:03:26;;;;;;;5.13;3.50;;;10.90;6.40;;;;;;5036022;28;20463;-66
2023/10/25 12:05:53;;;;;;;7.10;4.23;;;10.90;1.00;;;;;;5035582;28;20466;-69
2023/10/25 12:08:22;;;;;;;5.80;4.30;;;10.90;1.00;;;;;;5036013;28;20602;-66
2023/10/25 12:10:49;;;;;;;5.27;4.60;;;10.90;1.00;;;;;;5036069;28;20557;-65
2023/10/25 12:13:17;;;;;;;6.10;4.40;;;10.80;1.00;;;;;;5035921;28;20804;-65
2023/10/25 12:15:44;;;;;;;5.43;4.40;;;10.80;9.30;;;;;;5035809;28;20546;-65
2023/10/25 12:18:11;;;;;;;5.77;5.17;;;10.80;99.90;;;;;;5035304;28;20551;-64
2023/10/25 12:20:39;;;;;;;8.03;6.60;;;10.70;99.90;;;;;;5035305;28;20487;-65
2023/10/25 12:23:07;;;;;;;6.07;5.20;;;10.70;99.90;;;;;;5035966;28;20494;-62
2023/10/25 12:25:37;;;;;;;8.63;4.93;;;10.70;99.90;;;;;;5037144;28;20463;-64
2023/10/25 12:28:05;;;;;;;6.53;5.57;;;10.60;99.90;;;;;;5035894;28;20547;-66
2023/10/25 12:30:32;;;;;;;7.70;6.30;;;10.60;99.90;;;;;;5036207;28;20493;-66
2023/10/25 12:33:01;;;;;;;11.40;7.10;;;10.60;1.00;;;;;;5036075;28;20532;-66
2023/10/25 12:35:29;;;;;;;7.53;5.90;;;10.60;1.00;;;;;;5035870;28;20498;-66
2023/10/25 12:37:56;;;;;;;9.03;6.87;;;10.60;1.00;;;;;;5035474;28;20558;-65
2023/10/25 12:40:24;;;;;;;7.73;6.60;;;10.60;94.60;;;;;;5035258;28;20516;-67
2023/10/25 12:42:53;;;;;;;5.77;4.93;;;10.60;99.90;;;;;;5035641;28;20466;-65
2023/10/25 12:45:20;;;;;;;5.70;3.97;;;10.60;99.90;;;;;;5035432;28;20753;-65
2023/10/25 12:47:48;;;;;;;7.93;4.60;;;10.60;99.90;;;;;;5034702;28;20502;-67
2023/10/25 12:50:16;;;;;;;5.00;4.43;;;10.70;99.90;;;;;;5035580;28;20501;-66
2023/10/25 12:52:43;;;;;;;5.63;5.00;;;10.70;99.90;;;;;;5035493;28;20459;-66
2023/10/25 12:55:11;;;;;;;5.40;4.30;;;10.70;99.90;;;;;;5035202;28;20562;-65
2023/10/25 12:57:39;;;;;;;6.13;5.43;;;10.70;99.90;;;;;;5035240;28;20452;-66